Time;durP1;ratioP1;P1;durP2;ratioP2;P2;SDS_P1;SDS_P2;PMS_P1;PMS_P2;Temp;Humidity;BMP_temperature;BMP_pressure;BME280_temperature;BME280_humidity;BME280_pressure;Samples;Min_cycle;Max_cycle;Signal;HPM_P1;HPM_P2
2023/10/12 00:00:54;;;;;;;;;;;12.90;95.80;;;;;;5033404;28;19905;-44
2023/10/12 00:03:21;;;;;;;;;;;12.80;95.70;;;;;;4999052;28;19909;-44
2023/10/12 00:05:48;;;;;;;;;;;12.80;95.70;;;;;;5033051;28;19978;-45
2023/10/12 00:08:29;;;;;;;;;;;12.70;95.30;;;;;;5022687;28;20330;-44
2023/10/12 00:10:56;;;;;;;;;;;12.50;95.10;;;;;;5022332;28;20522;-44
2023/10/12 00:13:28;;;;;;;;;;;12.50;94.90;;;;;;5017360;28;19992;-44
2023/10/12 00:15:55;;;;;;;;;;;12.40;94.80;;;;;;5016773;28;20345;-44
2023/10/12 00:18:22;;;;;;;;;;;12.40;94.70;;;;;;5015788;28;19967;-44
2023/10/12 00:20:53;;;;;;;;;;;12.40;94.80;;;;;;5009550;28;19976;-45
2023/10/12 00:23:21;;;;;;;;;;;12.40;94.70;;;;;;4996606;28;19964;-44
2023/10/12 00:25:59;;;;;;;;;;;12.40;94.70;;;;;;5000326;28;19993;-45
2023/10/12 00:28:44;;;;;;;;;;;12.40;94.70;;;;;;5016484;28;19909;-45
2023/10/12 00:31:21;;;;;;;;;;;12.40;94.70;;;;;;5011823;28;19914;-44
2023/10/12 00:33:50;;;;;;;;;;;12.30;94.70;;;;;;4996918;28;19909;-44
2023/10/12 00:36:21;;;;;;;;;;;12.30;94.80;;;;;;4995833;28;20000;-44
2023/10/12 00:38:52;;;;;;;;;;;12.40;94.80;;;;;;4996915;28;19949;-45
2023/10/12 00:41:19;;;;;;;;;;;12.40;94.80;;;;;;5003286;28;19955;-44
2023/10/12 00:44:12;;;;;;;;;;;12.40;94.80;;;;;;5015447;28;20347;-44
2023/10/12 00:49:27;;;;;;;;;;;12.40;94.90;;;;;;4995829;28;19964;-44
2023/10/12 00:52:07;;;;;;;;;;;12.40;94.70;;;;;;4996492;28;20250;-44
2023/10/12 00:54:41;;;;;;;;;;;12.40;95.00;;;;;;5002224;28;19917;-45
2023/10/12 00:57:10;;;;;;;;;;;12.40;94.90;;;;;;5030684;28;19932;-44
2023/10/12 00:59:47;;;;;;;;;;;12.40;94.90;;;;;;5015650;28;19916;-43
2023/10/12 01:02:17;;;;;;;;;;;12.40;95.00;;;;;;5009662;28;19936;-43
2023/10/12 01:04:48;;;;;;;;;;;12.40;94.90;;;;;;4996239;28;19912;-44
2023/10/12 01:07:19;;;;;;;;;;;12.30;94.90;;;;;;5014084;28;19917;-44
2023/10/12 01:09:49;;;;;;;;;;;12.30;94.80;;;;;;5015774;28;20012;-44
2023/10/12 01:12:18;;;;;;;;;;;12.30;94.90;;;;;;5014686;28;19913;-45
2023/10/12 01:14:47;;;;;;;;;;;12.30;94.90;;;;;;5031634;28;20008;-44
2023/10/12 01:17:24;;;;;;;;;;;12.30;95.00;;;;;;5016389;28;19921;-44
2023/10/12 01:19:52;;;;;;;;;;;12.30;95.00;;;;;;5015566;28;19909;-45
2023/10/12 01:22:25;;;;;;;;;;;12.30;95.00;;;;;;5016045;28;19919;-45
2023/10/12 01:27:21;;;;;;;;;;;12.30;95.00;;;;;;5034466;28;20272;-46
2023/10/12 01:29:50;;;;;;;;;;;12.30;95.10;;;;;;5033311;28;19912;-44
2023/10/12 01:34:52;;;;;;;;;;;12.30;95.10;;;;;;5031997;28;19920;-44
2023/10/12 01:42:49;;;;;;;;;;;12.30;95.20;;;;;;5034900;28;20446;-45
2023/10/12 01:47:55;;;;;;;;;;;12.20;95.30;;;;;;5016291;28;19963;-44
2023/10/12 01:50:28;;;;;;;;;;;12.20;95.30;;;;;;5015088;28;19905;-43
2023/10/12 01:53:07;;;;;;;;;;;12.20;95.30;;;;;;5020729;28;19920;-44
2023/10/12 01:55:34;;;;;;;;;;;12.20;95.20;;;;;;5015482;28;19921;-44
2023/10/12 01:58:04;;;;;;;;;;;12.20;95.40;;;;;;5033652;28;20015;-45
2023/10/12 02:00:51;;;;;;;;;;;12.20;95.30;;;;;;5034709;28;20310;-44
2023/10/12 02:03:31;;;;;;;;;;;12.20;95.30;;;;;;5034742;28;19909;-44
2023/10/12 02:06:03;;;;;;;;;;;12.20;95.40;;;;;;5019129;28;20293;-45
2023/10/12 02:08:33;;;;;;;;;;;12.20;95.40;;;;;;5034602;28;19975;-44
2023/10/12 02:13:54;;;;;;;;;;;12.20;95.40;;;;;;5013472;28;19999;-43
2023/10/12 02:19:19;;;;;;;;;;;12.20;95.40;;;;;;5013891;28;19920;-44
2023/10/12 02:21:46;;;;;;;;;;;12.20;95.40;;;;;;5014480;28;19925;-43
2023/10/12 02:24:14;;;;;;;;;;;12.10;95.30;;;;;;5014096;28;19916;-44
2023/10/12 02:29:25;;;;;;;;;;;12.10;95.40;;;;;;5014117;28;19921;-44
2023/10/12 02:34:41;;;;;;;;;;;12.10;95.50;;;;;;4994645;28;19925;-44
2023/10/12 02:39:42;;;;;;;;;;;12.00;95.50;;;;;;5010576;28;19960;-44
2023/10/12 02:45:09;;;;;;;;;;;12.00;95.50;;;;;;5006062;28;19909;-44
2023/10/12 02:47:29;;;;;;;;;;;12.00;95.50;;;;;;5011092;28;19963;-43
2023/10/12 02:52:38;;;;;;;;;;;11.90;95.50;;;;;;4994147;28;20555;-44
2023/10/12 02:55:49;;;;;;;;;;;11.90;95.50;;;;;;5007770;28;19916;-44
2023/10/12 03:01:12;;;;;;;;;;;11.90;95.50;;;;;;4979992;28;19917;-44
2023/10/12 03:03:47;;;;;;;;;;;11.90;95.50;;;;;;5013763;28;19913;-43
2023/10/12 03:06:21;;;;;;;;;;;11.90;95.50;;;;;;5012948;28;19971;-44
2023/10/12 03:11:27;;;;;;;;;;;11.80;95.50;;;;;;4994238;28;19912;-43
2023/10/12 03:16:41;;;;;;;;;;;11.80;95.60;;;;;;5013619;28;20374;-44
2023/10/12 03:19:23;;;;;;;;;;;11.80;95.60;;;;;;5013731;28;19905;-43
2023/10/12 03:22:03;;;;;;;;;;;11.80;95.50;;;;;;5026040;28;20333;-44
2023/10/12 03:27:25;;;;;;;;;;;11.70;95.50;;;;;;5020032;28;19905;-44
2023/10/12 03:29:55;;;;;;;;;;;11.70;95.60;;;;;;5032736;28;19909;-44
2023/10/12 03:32:25;;;;;;;;;;;11.70;95.60;;;;;;5033405;28;19959;-44
2023/10/12 03:37:18;;;;;;;;;;;11.70;95.60;;;;;;5029304;28;20016;-43
2023/10/12 03:44:55;;;;;;;;;;;11.70;95.60;;;;;;5019413;28;19920;-44
2023/10/12 03:52:18;;;;;;;;;;;11.60;95.60;;;;;;5031695;28;19909;-43
2023/10/12 03:57:44;;;;;;;;;;;11.60;95.50;;;;;;5037340;28;20008;-43
2023/10/12 04:05:38;;;;;;;;;;;11.60;95.50;;;;;;5019609;28;19924;-45
2023/10/12 04:19:03;;;;;;;;;;;11.70;95.70;;;;;;5029077;28;19923;-44
2023/10/12 04:21:33;;;;;;;;;;;11.60;95.60;;;;;;5015684;28;19920;-44
2023/10/12 04:29:51;;;;;;;;;;;11.50;95.50;;;;;;4995307;28;19949;-43
2023/10/12 04:32:37;;;;;;;;;;;11.60;95.50;;;;;;5014080;28;19909;-44
2023/10/12 04:35:14;;;;;;;;;;;11.50;95.50;;;;;;5016565;28;19924;-43
2023/10/12 04:37:43;;;;;;;;;;;11.60;95.60;;;;;;5016142;28;19924;-44
2023/10/12 04:40:36;;;;;;;;;;;11.50;95.50;;;;;;5017427;28;19967;-44
2023/10/12 04:43:06;;;;;;;;;;;11.50;95.40;;;;;;5021581;28;19909;-45
2023/10/12 04:46:05;;;;;;;;;;;11.50;95.40;;;;;;5036185;28;19905;-44
2023/10/12 04:48:31;;;;;;;;;;;11.50;95.40;;;;;;5034917;28;19916;-44
2023/10/12 04:51:07;;;;;;;;;;;11.40;95.40;;;;;;5036212;28;19979;-43
2023/10/12 04:53:58;;;;;;;;;;;11.50;95.50;;;;;;5035512;28;19944;-44
2023/10/12 04:56:26;;;;;;;;;;;11.50;95.50;;;;;;5036083;28;19909;-43
2023/10/12 04:58:59;;;;;;;;;;;11.50;95.50;;;;;;5028547;28;19952;-44
2023/10/12 05:02:01;;;;;;;;;;;11.50;95.50;;;;;;5023111;28;19916;-43
2023/10/12 05:07:29;;;;;;;;;;;11.50;95.50;;;;;;5017807;28;19936;-43
2023/10/12 05:09:53;;;;;;;;;;;11.50;95.50;;;;;;5023080;28;20353;-43
2023/10/12 05:12:20;;;;;;;;;;;11.50;95.50;;;;;;5018560;28;19936;-44
2023/10/12 05:14:47;;;;;;;;;;;11.50;95.40;;;;;;5015594;28;20323;-45
2023/10/12 05:17:18;;;;;;;;;;;11.50;95.40;;;;;;5020660;28;20059;-44
2023/10/12 05:19:44;;;;;;;;;;;11.50;95.40;;;;;;5034570;28;19945;-43
2023/10/12 05:22:12;;;;;;;;;;;11.50;95.40;;;;;;5035307;28;20003;-44
2023/10/12 05:24:38;;;;;;;;;;;11.40;95.40;;;;;;5035616;28;19905;-46
2023/10/12 05:27:39;;;;;;;;;;;11.40;95.30;;;;;;5017730;28;19916;-44
2023/10/12 05:30:05;;;;;;;;;;;11.40;95.20;;;;;;5015437;28;19909;-44
2023/10/12 05:32:43;;;;;;;;;;;11.30;95.10;;;;;;5027902;28;19909;-45
2023/10/12 05:35:15;;;;;;;;;;;11.30;95.10;;;;;;5019194;28;20262;-44
2023/10/12 05:37:48;;;;;;;;;;;11.20;95.00;;;;;;5034292;28;19931;-43
2023/10/12 05:40:34;;;;;;;;;;;11.10;94.90;;;;;;5034025;28;19923;-44
2023/10/12 05:43:09;;;;;;;;;;;11.20;95.00;;;;;;5015409;28;20346;-44
2023/10/12 05:45:37;;;;;;;;;;;11.20;95.00;;;;;;5015496;28;19910;-44
2023/10/12 05:48:04;;;;;;;;;;;11.20;95.00;;;;;;5029880;28;19932;-44
2023/10/12 05:50:34;;;;;;;;;;;11.10;95.00;;;;;;5018861;28;19909;-43
2023/10/12 05:53:07;;;;;;;;;;;11.10;94.90;;;;;;5014896;28;20266;-45
2023/10/12 05:55:35;;;;;;;;;;;11.10;94.90;;;;;;5016050;28;20359;-44
2023/10/12 05:58:11;;;;;;;;;;;11.00;94.80;;;;;;5029162;28;19913;-44
2023/10/12 06:00:41;;;;;;;;;;;11.00;94.80;;;;;;5034355;28;19931;-44
2023/10/12 06:03:15;;;;;;;;;;;11.00;94.90;;;;;;5033807;28;19913;-43
2023/10/12 06:06:01;;;;;;;;;;;10.90;94.80;;;;;;5034473;28;19920;-44
2023/10/12 06:08:28;;;;;;;;;;;10.90;94.80;;;;;;5031483;28;19952;-45
2023/10/12 06:10:55;;;;;;;;;;;10.90;94.80;;;;;;5030650;28;19928;-45
2023/10/12 06:13:30;;;;;;;;;;;10.90;94.80;;;;;;5034068;28;20271;-44
2023/10/12 06:15:56;;;;;;;;;;;10.80;94.80;;;;;;5034607;28;19996;-43
2023/10/12 06:18:30;;;;;;;;;;;10.80;94.80;;;;;;5016823;28;20015;-45
2023/10/12 06:21:05;;;;;;;;;;;10.80;94.80;;;;;;5028991;28;19943;-44
2023/10/12 06:23:36;;;;;;;;;;;10.80;94.80;;;;;;5034244;28;19913;-44
2023/10/12 06:26:09;;;;;;;;;;;10.80;94.70;;;;;;5034392;28;19932;-45
2023/10/12 06:28:38;;;;;;;;;;;10.80;94.80;;;;;;5029840;28;20000;-44
2023/10/12 06:31:07;;;;;;;;;;;10.80;94.80;;;;;;5014141;28;19905;-44
2023/10/12 06:33:40;;;;;;;;;;;10.80;94.80;;;;;;5024437;28;20557;-44
2023/10/12 06:36:16;;;;;;;;;;;10.80;94.80;;;;;;5014505;28;19909;-44
2023/10/12 06:47:28;;;;;;;;;;;10.90;94.90;;;;;;5001161;28;19910;-44
2023/10/12 06:49:51;;;;;;;;;;;11.00;94.90;;;;;;5032857;28;19928;-45
2023/10/12 06:52:19;;;;;;;;;;;11.10;94.90;;;;;;5032863;28;19913;-45
2023/10/12 06:54:59;;;;;;;;;;;11.10;94.90;;;;;;5033586;28;19916;-45
2023/10/12 07:02:34;;;;;;;;;;;11.40;94.80;;;;;;5014876;28;19920;-44
2023/10/12 07:05:03;;;;;;;;;;;11.40;94.70;;;;;;5031521;28;19912;-45
2023/10/12 07:07:41;;;;;;;;;;;11.50;94.90;;;;;;5033554;28;19999;-44
2023/10/12 07:12:52;;;;;;;;;;;11.70;94.70;;;;;;5013129;28;20337;-44
2023/10/12 07:15:22;;;;;;;;;;;11.90;94.50;;;;;;5015953;28;19996;-45
2023/10/12 07:17:55;;;;;;;;;;;11.90;94.30;;;;;;5020731;28;19913;-44
2023/10/12 07:23:17;;;;;;;;;;;12.10;93.80;;;;;;5028866;28;19924;-44
2023/10/12 07:25:59;;;;;;;;;;;12.10;93.60;;;;;;5027463;28;19908;-45
2023/10/12 07:28:36;;;;;;;;;;;12.20;93.80;;;;;;5033285;28;19911;-44
2023/10/12 07:36:57;;;;;;;;;;;12.70;93.00;;;;;;5033288;28;19988;-45
2023/10/12 07:39:27;;;;;;;;;;;12.60;91.40;;;;;;5029397;28;19909;-45
2023/10/12 07:42:05;;;;;;;;;;;12.80;91.20;;;;;;5027652;28;19909;-47
2023/10/12 07:44:42;;;;;;;;;;;13.10;91.40;;;;;;5033244;28;19905;-46
2023/10/12 07:49:57;;;;;;;;;;;13.70;90.50;;;;;;4987346;28;20285;-47
2023/10/12 07:55:15;;;;;;;;;;;14.10;88.70;;;;;;5032550;28;19924;-49
2023/10/12 07:57:47;;;;;;;;;;;14.20;88.00;;;;;;5033383;28;19909;-51
2023/10/12 08:13:26;;;;;;;;;;;14.10;87.60;;;;;;5031528;28;20330;-50
2023/10/12 08:15:56;;;;;;;;;;;14.10;87.50;;;;;;5013165;28;19909;-52
2023/10/12 08:39:38;;;;;;;;;;;13.60;88.90;;;;;;5036529;28;19905;-49
2023/10/12 08:44:50;;;;;;;;;;;13.60;88.80;;;;;;5031599;28;19997;-50
2023/10/12 08:48:05;;;;;;;;;;;13.70;89.20;;;;;;5015323;28;20358;-49
2023/10/12 08:50:08;;;;;;;;;;;13.80;89.00;;;;;;5013071;28;20408;-51
2023/10/12 08:52:40;;;;;;;;;;;13.90;89.00;;;;;;5035921;28;19909;-49
2023/10/12 08:55:13;;;;;;;;;;;13.90;88.40;;;;;;5036471;28;19913;-49
2023/10/12 08:58:01;;;;;;;;;;;14.00;88.30;;;;;;5027041;28;19913;-50
2023/10/12 09:00:39;;;;;;;;;;;14.20;88.20;;;;;;5027278;28;19909;-51
2023/10/12 09:03:08;;;;;;;;;;;14.30;87.80;;;;;;5030344;28;20335;-49
2023/10/12 09:05:36;;;;;;;;;;;14.40;87.20;;;;;;5026309;28;20329;-51
2023/10/12 09:13:17;;;;;;;;;;;14.70;86.80;;;;;;5034401;28;20270;-50
2023/10/12 09:15:49;;;;;;;;;;;14.80;84.70;;;;;;5035274;28;19929;-53
2023/10/12 09:18:18;;;;;;;;;;;14.90;84.20;;;;;;5018419;28;19969;-54
2023/10/12 09:31:48;;;;;;;;;;;15.60;82.10;;;;;;5020733;28;20364;-50
2023/10/12 09:36:43;;;;;;;;;;;15.90;79.70;;;;;;5029734;28;20019;-50
2023/10/12 09:39:34;;;;;;;;;;;16.00;80.00;;;;;;5035618;28;19909;-49
2023/10/12 09:42:14;;;;;;;;;;;16.00;78.60;;;;;;5031522;28;20266;-48
2023/10/12 09:44:40;;;;;;;;;;;16.10;79.30;;;;;;5014262;28;19971;-49
2023/10/12 09:47:16;;;;;;;;;;;16.20;77.40;;;;;;5029718;28;19920;-48
2023/10/12 09:49:58;;;;;;;;;;;15.90;74.60;;;;;;5034003;28;19917;-49
2023/10/12 09:52:42;;;;;;;;;;;16.00;76.40;;;;;;5027014;28;19917;-49
2023/10/12 09:55:14;;;;;;;;;;;16.10;75.30;;;;;;5015344;28;19928;-50
2023/10/12 09:57:49;;;;;;;;;;;16.00;73.30;;;;;;5034418;28;19920;-48
2023/10/12 10:03:35;;;;;;;;;;;16.00;75.10;;;;;;4981829;28;19920;-48
2023/10/12 10:06:10;;;;;;;;;;;15.90;74.60;;;;;;5020810;28;19909;-48
2023/10/12 10:08:45;;;;;;;;;;;15.80;73.50;;;;;;5032967;28;19920;-48
2023/10/12 10:11:13;;;;;;;;;;;15.90;75.50;;;;;;5017402;28;19913;-48
2023/10/12 10:13:46;;;;;;;;;;;16.20;74.90;;;;;;5031573;28;19960;-50
2023/10/12 10:16:17;;;;;;;;;;;16.30;73.50;;;;;;5017530;28;19916;-47
2023/10/12 10:18:56;;;;;;;;;;;16.10;71.50;;;;;;5017318;28;19909;-48
2023/10/12 10:21:31;;;;;;;;;;;16.00;72.00;;;;;;5022039;28;19967;-48
2023/10/12 10:23:57;;;;;;;;;;;16.20;73.80;;;;;;5017986;28;20246;-47
2023/10/12 10:26:30;;;;;;;;;;;16.40;72.50;;;;;;5032493;28;20349;-47
2023/10/12 10:29:17;;;;;;;;;;;16.40;71.80;;;;;;5034240;28;19921;-48
2023/10/12 10:31:46;;;;;;;;;;;16.50;71.50;;;;;;5034242;28;20282;-47
2023/10/12 10:34:23;;;;;;;;;;;16.50;70.70;;;;;;5033206;28;20242;-47
2023/10/12 10:36:52;;;;;;;;;;;16.50;72.00;;;;;;5030839;28;19913;-47
2023/10/12 10:44:36;;;;;;;;;;;16.80;70.80;;;;;;5033857;28;19909;-49
2023/10/12 10:47:09;;;;;;;;;;;16.70;70.50;;;;;;5018887;28;19920;-47
2023/10/12 10:49:37;;;;;;;;;;;16.80;69.90;;;;;;5033751;28;19916;-49
2023/10/12 10:54:33;;;;;;;;;;;17.00;68.70;;;;;;5014346;28;20251;-48
2023/10/12 10:57:15;;;;;;;;;;;17.00;66.10;;;;;;5013919;28;19909;-47
2023/10/12 10:59:43;;;;;;;;;;;17.20;66.60;;;;;;5031690;28;19919;-48
2023/10/12 11:02:13;;;;;;;;;;;17.40;66.00;;;;;;5024125;28;19971;-48
2023/10/12 11:04:46;;;;;;;;;;;17.40;65.50;;;;;;5033550;28;20388;-50
2023/10/12 11:07:15;;;;;;;;;;;17.50;66.10;;;;;;5032549;28;19909;-48
2023/10/12 11:12:22;;;;;;;;;;;17.10;66.90;;;;;;5014475;28;19909;-48
2023/10/12 11:14:58;;;;;;;;;;;16.90;67.70;;;;;;5013479;28;20004;-48
2023/10/12 11:17:26;;;;;;;;;;;16.50;65.90;;;;;;5027602;28;19956;-48
2023/10/12 11:19:53;;;;;;;;;;;16.10;66.90;;;;;;5032696;28;19991;-48
2023/10/12 11:22:19;;;;;;;;;;;15.90;66.40;;;;;;5029247;28;19910;-47
2023/10/12 11:24:48;;;;;;;;;;;15.90;67.10;;;;;;5012948;28;19928;-49
2023/10/12 11:27:33;;;;;;;;;;;16.10;69.80;;;;;;5025927;28;19917;-48
2023/10/12 11:30:07;;;;;;;;;;;16.30;68.80;;;;;;5028607;28;19952;-47
2023/10/12 11:32:54;;;;;;;;;;;16.50;67.30;;;;;;5013824;28;20317;-50
2023/10/12 11:35:42;;;;;;;;;;;16.60;67.10;;;;;;5013665;28;20367;-47
2023/10/12 11:38:19;;;;;;;;;;;16.70;66.30;;;;;;5030828;28;19964;-47
2023/10/12 11:40:52;;;;;;;;;;;16.90;68.70;;;;;;5014529;28;19916;-49
2023/10/12 11:43:28;;;;;;;;;;;17.10;68.70;;;;;;5013411;28;19912;-48
2023/10/12 11:45:56;;;;;;;;;;;16.90;62.90;;;;;;5014311;28;19933;-51
2023/10/12 11:48:26;;;;;;;;;;;16.90;65.10;;;;;;5032390;28;20300;-48
2023/10/12 11:51:11;;;;;;;;;;;16.90;65.20;;;;;;5032751;28;20010;-47
2023/10/12 11:53:41;;;;;;;;;;;16.90;63.70;;;;;;5031703;28;19921;-48
2023/10/12 11:58:55;;;;;;;;;;;16.90;65.80;;;;;;5018956;28;19924;-49
2023/10/12 12:01:30;;;;;;;;;;;16.90;65.50;;;;;;5032016;28;19908;-47
2023/10/12 12:04:02;;;;;;;;;;;16.90;66.40;;;;;;5033308;28;19933;-47
2023/10/12 12:06:32;;;;;;;;;;;16.70;64.00;;;;;;5032768;28;19916;-48
2023/10/12 12:09:07;;;;;;;;;;;16.70;65.60;;;;;;5030210;28;19910;-48
2023/10/12 12:11:43;;;;;;;;;;;16.60;63.90;;;;;;5017185;28;19910;-48
2023/10/12 12:14:10;;;;;;;;;;;16.50;62.90;;;;;;5016957;28;20644;-48
2023/10/12 12:16:38;;;;;;;;;;;16.40;63.20;;;;;;5017534;28;19968;-48
2023/10/12 12:19:04;;;;;;;;;;;16.30;64.70;;;;;;5036059;28;19958;-47
2023/10/12 12:21:34;;;;;;;;;;;16.30;64.70;;;;;;5036667;28;19948;-48
2023/10/12 12:26:52;;;;;;;;;;;16.00;64.40;;;;;;5030731;28;20297;-47
2023/10/12 12:29:25;;;;;;;;;;;16.00;65.20;;;;;;5037054;28;20250;-47
2023/10/12 12:31:51;;;;;;;;;;;15.90;65.90;;;;;;5036220;28;19912;-48
2023/10/12 12:37:05;;;;;;;;;;;15.90;66.30;;;;;;5036051;28;19920;-47
2023/10/12 12:39:33;;;;;;;;;;;15.90;66.50;;;;;;5033543;28;20281;-48
2023/10/12 12:42:02;;;;;;;;;;;15.80;65.50;;;;;;5017237;28;19996;-49
2023/10/12 12:44:31;;;;;;;;;;;15.80;66.30;;;;;;5026811;28;19925;-48
2023/10/12 12:46:59;;;;;;;;;;;15.80;66.70;;;;;;5015181;28;19913;-47
2023/10/12 12:49:25;;;;;;;;;;;15.80;66.20;;;;;;5024429;28;19920;-47
2023/10/12 12:51:52;;;;;;;;;;;15.70;65.40;;;;;;5016705;28;19916;-47
2023/10/12 12:54:21;;;;;;;;;;;15.60;64.20;;;;;;5032152;28;19999;-49
2023/10/12 12:56:46;;;;;;;;;;;15.60;63.50;;;;;;5032882;28;19944;-50
2023/10/12 12:59:17;;;;;;;;;;;15.60;65.10;;;;;;5029850;28;19947;-51
2023/10/12 13:01:46;;;;;;;;;;;15.60;66.10;;;;;;5035751;28;19951;-48
2023/10/12 13:04:16;;;;;;;;;;;15.60;67.20;;;;;;5034814;28;20003;-50
2023/10/12 13:06:43;;;;;;;;;;;15.60;66.70;;;;;;5016288;28;20386;-48
2023/10/12 13:09:28;;;;;;;;;;;15.60;66.40;;;;;;5028305;28;19905;-48
2023/10/12 13:11:56;;;;;;;;;;;15.60;66.00;;;;;;5035586;28;20533;-48
2023/10/12 13:14:23;;;;;;;;;;;15.50;65.50;;;;;;5035109;28;19921;-49
2023/10/12 13:16:49;;;;;;;;;;;15.50;65.90;;;;;;5031533;28;19913;-48
2023/10/12 13:19:17;;;;;;;;;;;15.40;65.10;;;;;;5015508;28;19905;-51
2023/10/12 13:21:44;;;;;;;;;;;15.40;66.10;;;;;;5015924;28;19992;-47
2023/10/12 13:24:12;;;;;;;;;;;15.40;65.80;;;;;;5026701;28;19991;-47
2023/10/12 13:26:43;;;;;;;;;;;15.40;66.50;;;;;;5035578;28;19948;-51
2023/10/12 13:29:11;;;;;;;;;;;15.40;66.80;;;;;;5035811;28;20263;-50
2023/10/12 13:31:36;;;;;;;;;;;15.40;65.50;;;;;;5001413;28;19913;-48
2023/10/12 13:34:06;;;;;;;;;;;15.40;67.30;;;;;;5025513;28;20414;-48
2023/10/12 13:36:33;;;;;;;;;;;15.40;67.80;;;;;;5034364;28;20320;-48
2023/10/12 13:39:03;;;;;;;;;;;15.50;67.60;;;;;;5030393;28;19951;-48
2023/10/12 13:41:31;;;;;;;;;;;15.40;66.70;;;;;;5014959;28;19909;-48
2023/10/12 13:44:05;;;;;;;;;;;15.40;67.50;;;;;;5015268;28;20085;-48
2023/10/12 13:46:32;;;;;;;;;;;15.40;67.50;;;;;;5025902;28;19909;-48
2023/10/12 13:49:11;;;;;;;;;;;15.40;67.00;;;;;;5034757;28;19916;-49
2023/10/12 13:51:48;;;;;;;;;;;15.30;65.00;;;;;;5034953;28;19905;-48
2023/10/12 13:54:15;;;;;;;;;;;15.30;65.00;;;;;;5033185;28;19913;-49
2023/10/12 13:56:48;;;;;;;;;;;15.30;66.10;;;;;;5034969;28;20235;-48
2023/10/12 13:59:16;;;;;;;;;;;15.20;64.90;;;;;;5035169;28;19936;-49
2023/10/12 14:01:46;;;;;;;;;;;15.20;66.50;;;;;;5034322;28;20353;-50
2023/10/12 14:07:01;;;;;;;;;;;15.00;65.50;;;;;;5033500;28;19962;-48
2023/10/12 14:09:28;;;;;;;;;;;15.00;67.80;;;;;;5023391;28;19963;-48
2023/10/12 14:11:54;;;;;;;;;;;15.00;67.80;;;;;;5034369;28;19944;-48
2023/10/12 14:14:20;;;;;;;;;;;15.00;67.10;;;;;;5033852;28;19924;-48
2023/10/12 14:16:48;;;;;;;;;;;15.00;67.00;;;;;;5019125;28;19913;-51
2023/10/12 14:19:16;;;;;;;;;;;15.00;65.80;;;;;;5028922;28;20310;-48
2023/10/12 14:21:46;;;;;;;;;;;15.00;67.30;;;;;;5024795;28;20003;-50
2023/10/12 14:24:11;;;;;;;;;;;15.00;67.00;;;;;;5017774;28;19958;-50
2023/10/12 14:26:37;;;;;;;;;;;15.00;67.10;;;;;;5034526;28;19909;-48
2023/10/12 14:29:09;;;;;;;;;;;15.00;66.80;;;;;;5034422;28;19909;-49
2023/10/12 14:31:35;;;;;;;;;;;15.00;65.40;;;;;;5032548;28;19916;-48
2023/10/12 14:34:02;;;;;;;;;;;15.00;66.30;;;;;;5016165;28;20329;-48
2023/10/12 14:36:28;;;;;;;;;;;15.00;66.00;;;;;;5034063;28;19908;-50
2023/10/12 14:38:55;;;;;;;;;;;15.00;65.20;;;;;;5032762;28;20230;-50
2023/10/12 14:41:21;;;;;;;;;;;15.10;65.50;;;;;;5033667;28;19913;-48
2023/10/12 14:43:47;;;;;;;;;;;15.00;65.00;;;;;;5034037;28;19909;-52
2023/10/12 14:46:14;;;;;;;;;;;15.10;65.70;;;;;;5034211;28;20309;-49
2023/10/12 14:48:43;;;;;;;;;;;15.10;65.10;;;;;;5023394;28;19909;-50
2023/10/12 14:53:36;;;;;;;;;;;15.00;64.40;;;;;;5021793;28;19935;-48
2023/10/12 14:56:05;;;;;;;;;;;15.00;64.40;;;;;;5034230;28;20242;-52
2023/10/12 14:58:33;;;;;;;;;;;15.00;64.50;;;;;;5016107;28;19913;-52
2023/10/12 15:01:00;;;;;;;;;;;14.90;65.90;;;;;;5013815;28;19995;-49
2023/10/12 15:03:26;;;;;;;;;;;14.90;66.40;;;;;;5026054;28;19916;-50
2023/10/12 15:05:59;;;;;;;;;;;14.90;64.80;;;;;;5022329;28;19963;-50
2023/10/12 15:08:26;;;;;;;;;;;14.80;65.20;;;;;;5033400;28;19928;-50
2023/10/12 15:10:56;;;;;;;;;;;14.80;66.60;;;;;;5033534;28;19927;-48
2023/10/12 15:13:23;;;;;;;;;;;14.80;65.90;;;;;;5025000;28;20679;-48
2023/10/12 15:15:49;;;;;;;;;;;14.70;66.40;;;;;;5000809;28;19916;-48
2023/10/12 15:18:19;;;;;;;;;;;14.70;68.20;;;;;;4994820;28;19932;-48
2023/10/12 15:20:48;;;;;;;;;;;14.70;68.40;;;;;;4993249;28;20004;-52
2023/10/12 15:23:16;;;;;;;;;;;14.60;68.10;;;;;;5003968;28;19918;-49
2023/10/12 15:25:43;;;;;;;;;;;14.60;69.10;;;;;;5029060;28;19921;-50
2023/10/12 15:28:11;;;;;;;;;;;14.70;69.40;;;;;;4994945;28;19989;-50
2023/10/12 15:30:44;;;;;;;;;;;14.80;70.70;;;;;;4993966;28;19906;-48
2023/10/12 15:33:12;;;;;;;;;;;14.80;71.60;;;;;;5002028;28;20402;-48
2023/10/12 15:35:40;;;;;;;;;;;14.80;68.60;;;;;;5011612;28;19906;-50
2023/10/12 15:38:06;;;;;;;;;;;14.70;69.90;;;;;;5003723;28;19913;-48
2023/10/12 15:40:36;;;;;;;;;;;14.70;71.00;;;;;;5012168;28;20293;-48
2023/10/12 15:43:15;;;;;;;;;;;14.60;70.70;;;;;;4997742;28;19905;-49
2023/10/12 15:45:44;;;;;;;;;;;14.60;73.00;;;;;;5003161;28;19910;-50
2023/10/12 15:48:13;;;;;;;;;;;14.50;74.60;;;;;;5033119;28;19910;-49
2023/10/12 15:50:43;;;;;;;;;;;14.40;75.10;;;;;;5017115;28;20306;-48
2023/10/12 15:53:09;;;;;;;;;;;14.30;75.80;;;;;;5017331;28;19913;-48
2023/10/12 15:55:39;;;;;;;;;;;14.30;76.40;;;;;;5017364;28;20016;-48
2023/10/12 15:58:05;;;;;;;;;;;14.20;77.10;;;;;;5016388;28;19909;-51
2023/10/12 16:00:32;;;;;;;;;;;14.10;78.00;;;;;;5016315;28;19913;-48
2023/10/12 16:03:19;;;;;;;;;;;13.90;78.90;;;;;;5016976;28;19909;-49
2023/10/12 16:05:46;;;;;;;;;;;13.90;78.40;;;;;;5006430;28;19992;-48
2023/10/12 16:08:14;;;;;;;;;;;13.80;79.00;;;;;;5009693;28;19917;-50
2023/10/12 16:10:46;;;;;;;;;;;13.70;79.70;;;;;;5017132;28;19909;-48
2023/10/12 16:13:11;;;;;;;;;;;13.60;80.10;;;;;;5018960;28;19905;-50
2023/10/12 16:15:43;;;;;;;;;;;13.50;80.80;;;;;;5035695;28;20346;-48
2023/10/12 16:18:09;;;;;;;;;;;13.40;80.70;;;;;;5036801;28;19909;-49
2023/10/12 16:20:35;;;;;;;;;;;13.40;80.80;;;;;;5026429;28;19913;-48
2023/10/12 16:23:02;;;;;;;;;;;13.30;81.30;;;;;;5025115;28;19913;-48
2023/10/12 16:25:30;;;;;;;;;;;13.20;81.60;;;;;;5036925;28;19905;-51
2023/10/12 16:27:57;;;;;;;;;;;13.20;81.80;;;;;;5036639;28;19920;-48
2023/10/12 16:30:25;;;;;;;;;;;13.10;81.60;;;;;;5018580;28;19920;-48
2023/10/12 16:32:54;;;;;;;;;;;13.00;82.20;;;;;;5036431;28;19905;-48
2023/10/12 16:35:25;;;;;;;;;;;12.90;82.70;;;;;;5020683;28;20039;-48
2023/10/12 16:37:51;;;;;;;;;;;12.90;83.00;;;;;;5022135;28;19920;-49
2023/10/12 16:40:18;;;;;;;;;;;12.80;83.30;;;;;;5036417;28;19916;-48
2023/10/12 16:42:46;;;;;;;;;;;12.70;83.60;;;;;;5019924;28;19940;-48
2023/10/12 16:45:14;;;;;;;;;;;12.60;83.70;;;;;;5016558;28;19975;-50
2023/10/12 16:47:40;;;;;;;;;;;12.60;83.80;;;;;;5018947;28;19916;-48
2023/10/12 16:50:09;;;;;;;;;;;12.50;84.10;;;;;;5018438;28;20357;-47
2023/10/12 16:52:37;;;;;;;;;;;12.40;84.20;;;;;;5035366;28;20366;-49
2023/10/12 16:55:06;;;;;;;;;;;12.40;84.50;;;;;;5018219;28;20277;-50
2023/10/12 16:57:33;;;;;;;;;;;12.30;84.70;;;;;;5028660;28;19967;-49
2023/10/12 16:59:59;;;;;;;;;;;12.20;85.00;;;;;;5036130;28;19908;-48
2023/10/12 17:02:27;;;;;;;;;;;12.20;85.30;;;;;;5035350;28;19915;-48
2023/10/12 17:04:59;;;;;;;;;;;12.10;85.70;;;;;;5036001;28;19944;-47
2023/10/12 17:07:28;;;;;;;;;;;12.10;85.80;;;;;;5030249;28;19913;-48
2023/10/12 17:09:55;;;;;;;;;;;12.00;86.10;;;;;;5033993;28;19913;-49
2023/10/12 17:12:25;;;;;;;;;;;11.90;86.10;;;;;;5015088;28;20000;-49
2023/10/12 17:14:52;;;;;;;;;;;11.90;86.40;;;;;;5016126;28;19979;-49
2023/10/12 17:17:22;;;;;;;;;;;11.90;86.60;;;;;;5016064;28;20256;-47
2023/10/12 17:19:49;;;;;;;;;;;11.90;86.60;;;;;;5032641;28;19911;-49
2023/10/12 17:22:16;;;;;;;;;;;11.80;86.80;;;;;;5033710;28;19909;-49
2023/10/12 17:24:43;;;;;;;;;;;11.90;87.00;;;;;;5034992;28;19947;-48
2023/10/12 17:27:11;;;;;;;;;;;11.90;87.20;;;;;;5035579;28;20300;-47
2023/10/12 17:29:39;;;;;;;;;;;11.90;87.30;;;;;;5035505;28;20298;-50
2023/10/12 17:32:07;;;;;;;;;;;12.00;87.40;;;;;;5024123;28;19973;-47
2023/10/12 17:34:37;;;;;;;;;;;12.10;87.50;;;;;;5015992;28;19905;-47
2023/10/12 17:37:04;;;;;;;;;;;12.10;87.80;;;;;;5015541;28;19909;-48
2023/10/12 17:39:31;;;;;;;;;;;12.20;87.80;;;;;;5027354;28;20386;-48
2023/10/12 17:42:00;;;;;;;;;;;12.20;87.50;;;;;;5035130;28;19917;-47
2023/10/12 17:44:36;;;;;;;;;;;12.30;87.50;;;;;;5024577;28;19909;-50
2023/10/12 17:47:04;;;;;;;;;;;12.30;87.30;;;;;;5015697;28;20380;-47
2023/10/12 17:49:31;;;;;;;;;;;12.30;87.50;;;;;;5025482;28;20289;-48
2023/10/12 17:52:03;;;;;;;;;;;12.40;87.60;;;;;;5035110;28;20314;-49
2023/10/12 17:54:33;;;;;;;;;;;12.40;87.60;;;;;;5034166;28;19909;-50
2023/10/12 17:57:00;;;;;;;;;;;12.40;87.80;;;;;;5035149;28;19908;-47
2023/10/12 17:59:27;;;;;;;;;;;12.40;87.90;;;;;;5034963;28;19916;-47